createdAt,value
2023-11-23T00:00:07.224Z,6.40
2023-11-23T00:02:34.197Z,6.40
2023-11-23T00:05:00.915Z,6.40
2023-11-23T00:07:27.610Z,6.40
2023-11-23T00:09:54.677Z,6.50
2023-11-23T00:12:21.437Z,6.50
2023-11-23T00:14:48.168Z,6.50
2023-11-23T00:17:16.511Z,6.50
2023-11-23T00:19:43.200Z,6.50
2023-11-23T00:22:10.054Z,6.50
2023-11-23T00:24:36.836Z,6.50
2023-11-23T00:27:04.546Z,6.50
2023-11-23T00:29:31.393Z,6.50
2023-11-23T00:32:01.025Z,6.40
2023-11-23T00:34:27.890Z,6.40
2023-11-23T00:36:54.705Z,6.40
2023-11-23T00:39:21.679Z,6.40
2023-11-23T00:41:48.428Z,6.30
2023-11-23T00:44:15.180Z,6.40
2023-11-23T00:46:41.949Z,6.40
2023-11-23T00:49:09.732Z,6.30
2023-11-23T00:51:37.948Z,6.30
2023-11-23T00:54:07.826Z,6.40
2023-11-23T00:56:34.551Z,6.40
2023-11-23T00:59:01.246Z,6.40
2023-11-23T01:01:29.163Z,6.40
2023-11-23T01:03:56.583Z,6.40
2023-11-23T01:06:23.397Z,6.40
2023-11-23T01:08:50.106Z,6.40
2023-11-23T01:11:17.545Z,6.30
2023-11-23T01:13:44.312Z,6.30
2023-11-23T01:16:11.188Z,6.40
2023-11-23T01:18:39.098Z,6.40
2023-11-23T01:21:06.078Z,6.40
2023-11-23T01:23:32.924Z,6.40
2023-11-23T01:26:00.136Z,6.30
2023-11-23T01:28:27.056Z,6.40
2023-11-23T01:30:53.815Z,6.40
2023-11-23T01:33:20.948Z,6.40
2023-11-23T01:35:47.777Z,6.40
2023-11-23T01:38:14.994Z,6.40
2023-11-23T01:40:41.701Z,6.40
2023-11-23T01:43:12.094Z,6.40
2023-11-23T01:45:39.482Z,6.40
2023-11-23T01:48:07.288Z,6.40
2023-11-23T01:50:35.328Z,6.50
2023-11-23T01:53:04.586Z,6.50
2023-11-23T01:55:31.930Z,6.50
2023-11-23T01:58:01.007Z,6.50
2023-11-23T02:00:28.756Z,6.50
2023-11-23T02:02:56.179Z,6.50
2023-11-23T02:05:26.009Z,6.50
2023-11-23T02:07:52.851Z,6.60
2023-11-23T02:10:20.172Z,6.50
2023-11-23T02:12:53.776Z,6.50
2023-11-23T02:15:20.642Z,6.60
2023-11-23T02:17:47.973Z,6.50
2023-11-23T02:20:15.064Z,6.50
2023-11-23T02:22:41.884Z,6.50
2023-11-23T02:25:08.826Z,6.60
2023-11-23T02:27:36.617Z,6.60
2023-11-23T02:30:04.556Z,6.60
2023-11-23T02:32:31.316Z,6.60
2023-11-23T02:34:58.031Z,6.60
2023-11-23T02:37:24.779Z,6.60
2023-11-23T02:39:51.502Z,6.60
2023-11-23T02:42:18.256Z,6.60
2023-11-23T02:44:45.039Z,6.60
2023-11-23T02:47:11.763Z,6.60
2023-11-23T02:49:38.453Z,6.60
2023-11-23T02:52:05.278Z,6.60
2023-11-23T02:54:32.273Z,6.60
2023-11-23T02:56:59.024Z,6.70
2023-11-23T02:59:25.741Z,6.70
2023-11-23T03:01:52.574Z,6.70
2023-11-23T03:04:19.995Z,6.70
2023-11-23T03:06:47.137Z,6.70
2023-11-23T03:09:14.131Z,6.70
2023-11-23T03:11:41.620Z,6.70
2023-11-23T03:14:09.600Z,6.80
2023-11-23T03:16:36.485Z,6.80
2023-11-23T03:19:03.315Z,6.80
2023-11-23T03:21:30.452Z,6.80
2023-11-23T03:23:57.334Z,6.80
2023-11-23T03:26:24.211Z,6.80
2023-11-23T03:28:50.990Z,6.80
2023-11-23T03:31:17.706Z,6.90
2023-11-23T03:33:44.908Z,6.90
2023-11-23T03:36:11.653Z,6.90
2023-11-23T03:38:38.643Z,6.90
2023-11-23T03:41:05.682Z,6.90
2023-11-23T03:43:32.496Z,6.90
2023-11-23T03:45:59.235Z,7.00
2023-11-23T03:48:26.893Z,7.00
2023-11-23T03:50:53.716Z,7.00
2023-11-23T03:53:20.873Z,7.00
2023-11-23T03:55:47.524Z,7.00
2023-11-23T03:58:15.472Z,7.00
2023-11-23T04:00:42.170Z,7.10
2023-11-23T04:03:09.342Z,7.10
2023-11-23T04:05:36.041Z,7.20
2023-11-23T04:08:02.937Z,7.20
2023-11-23T04:10:29.618Z,7.30
2023-11-23T04:12:56.282Z,7.30
2023-11-23T04:15:23.109Z,7.30
2023-11-23T04:17:49.864Z,7.30
2023-11-23T04:20:16.946Z,7.30
2023-11-23T04:22:43.705Z,7.30
2023-11-23T04:25:10.601Z,7.40
2023-11-23T04:27:37.323Z,7.40
2023-11-23T04:30:05.615Z,7.50
2023-11-23T04:32:34.103Z,7.50
2023-11-23T04:35:01.146Z,7.50
2023-11-23T04:37:27.830Z,7.50
2023-11-23T04:39:54.858Z,7.60
2023-11-23T04:42:21.571Z,7.60
2023-11-23T04:44:48.343Z,7.60
2023-11-23T04:47:15.079Z,7.60
2023-11-23T04:49:41.813Z,7.70
2023-11-23T04:52:08.484Z,7.70
2023-11-23T04:54:35.741Z,7.60
2023-11-23T04:57:02.495Z,7.70
2023-11-23T04:59:29.174Z,7.70
2023-11-23T05:01:57.628Z,7.70
2023-11-23T05:04:25.180Z,7.70
2023-11-23T05:06:52.525Z,7.70
2023-11-23T05:09:19.223Z,7.80
2023-11-23T05:11:46.197Z,7.80
2023-11-23T05:14:12.988Z,7.80
2023-11-23T05:16:39.809Z,7.80
2023-11-23T05:19:06.509Z,7.80
2023-11-23T05:21:33.795Z,7.90
2023-11-23T05:24:02.745Z,7.90
2023-11-23T05:26:31.186Z,7.90
2023-11-23T05:28:57.882Z,7.90
2023-11-23T05:31:24.653Z,7.90
2023-11-23T05:33:51.391Z,8.00
2023-11-23T05:36:18.612Z,8.00
2023-11-23T05:38:45.315Z,8.00
2023-11-23T05:41:12.267Z,8.10
2023-11-23T05:43:38.963Z,8.10
2023-11-23T05:46:05.792Z,8.10
2023-11-23T05:48:32.493Z,8.10
2023-11-23T05:50:59.364Z,8.10
2023-11-23T05:53:26.046Z,8.10
2023-11-23T05:55:52.738Z,8.20
2023-11-23T05:58:19.428Z,8.20
2023-11-23T06:00:48.621Z,8.20
2023-11-23T06:03:17.064Z,8.20
2023-11-23T06:05:43.831Z,8.20
2023-11-23T06:08:10.556Z,8.30
2023-11-23T06:10:38.475Z,8.30
2023-11-23T06:13:05.285Z,8.30
2023-11-23T06:15:32.073Z,8.40
2023-11-23T06:18:07.382Z,8.40
2023-11-23T06:20:40.555Z,8.40
2023-11-23T06:23:07.273Z,8.50
2023-11-23T06:25:33.917Z,8.50
2023-11-23T06:28:12.426Z,8.60
2023-11-23T06:30:44.193Z,8.60
2023-11-23T06:33:11.197Z,8.60
2023-11-23T06:35:38.369Z,8.70
2023-11-23T06:38:05.714Z,8.70
2023-11-23T06:40:35.646Z,8.70
2023-11-23T06:43:04.197Z,8.70
2023-11-23T06:45:31.180Z,8.80
2023-11-23T06:47:59.380Z,8.80
2023-11-23T06:50:26.437Z,8.80
2023-11-23T06:52:53.617Z,8.90
2023-11-23T06:55:20.356Z,8.90
2023-11-23T06:57:50.406Z,8.90
2023-11-23T07:00:24.641Z,8.90
2023-11-23T07:02:52.035Z,8.90
2023-11-23T07:05:21.542Z,8.90
2023-11-23T07:07:48.604Z,9.00
2023-11-23T07:10:19.324Z,9.00
2023-11-23T07:12:47.623Z,9.00
2023-11-23T07:15:15.225Z,9.00
2023-11-23T07:17:43.915Z,9.00
2023-11-23T07:20:14.290Z,9.10
2023-11-23T07:22:41.077Z,9.10
2023-11-23T07:25:11.759Z,9.10
2023-11-23T07:27:39.172Z,9.10
2023-11-23T07:30:09.980Z,9.10
2023-11-23T07:32:37.252Z,9.20
2023-11-23T07:35:05.986Z,9.20
2023-11-23T07:37:34.785Z,9.20
2023-11-23T07:40:06.598Z,9.30
2023-11-23T07:42:33.521Z,9.30
2023-11-23T07:45:00.485Z,9.30
2023-11-23T07:47:27.237Z,9.30
2023-11-23T07:49:55.597Z,9.30
2023-11-23T07:52:23.107Z,9.30
2023-11-23T07:54:49.941Z,9.40
2023-11-23T07:57:16.739Z,9.40
2023-11-23T07:59:46.909Z,9.40
2023-11-23T08:02:13.711Z,9.40
2023-11-23T08:04:40.517Z,9.40
2023-11-23T08:07:07.342Z,9.40
2023-11-23T08:09:34.094Z,9.50
2023-11-23T08:12:00.821Z,9.50
2023-11-23T08:14:27.516Z,9.50
2023-11-23T08:16:55.977Z,9.50
2023-11-23T08:19:26.517Z,9.50
2023-11-23T08:21:53.568Z,9.50
2023-11-23T08:24:20.410Z,9.50
2023-11-23T08:26:47.141Z,9.60
2023-11-23T08:29:13.794Z,9.70
2023-11-23T08:31:42.251Z,9.70
2023-11-23T08:34:09.407Z,9.70
2023-11-23T08:36:37.336Z,9.70
2023-11-23T08:39:04.964Z,9.70
2023-11-23T08:41:31.858Z,9.70
2023-11-23T08:44:00.049Z,9.80
2023-11-23T08:46:26.949Z,9.80
2023-11-23T08:48:55.176Z,9.80
2023-11-23T08:51:22.136Z,9.80
2023-11-23T08:53:49.678Z,9.80
2023-11-23T08:56:17.438Z,9.80
2023-11-23T08:58:44.375Z,9.90
2023-11-23T09:01:11.641Z,9.90
2023-11-23T09:03:38.837Z,9.90
2023-11-23T09:06:06.155Z,9.90
2023-11-23T09:08:33.266Z,9.90
2023-11-23T09:11:00.059Z,9.90
2023-11-23T09:13:27.733Z,9.90
2023-11-23T09:15:57.653Z,9.90
2023-11-23T09:18:24.474Z,9.90
2023-11-23T09:20:52.326Z,9.90
2023-11-23T09:23:19.443Z,10.00
2023-11-23T09:25:46.955Z,10.00
2023-11-23T09:28:14.390Z,10.00
2023-11-23T12:33:45.911Z,11.20
2023-11-23T12:36:13.586Z,11.20
2023-11-23T19:10:17.237Z,10.80
2023-11-23T19:12:51.544Z,10.90
2023-11-23T19:15:20.346Z,10.80
2023-11-23T19:17:47.343Z,10.70
2023-11-23T19:20:16.196Z,10.70
2023-11-23T19:22:43.129Z,10.80
2023-11-23T19:25:11.702Z,10.70
2023-11-23T19:27:39.656Z,10.80
2023-11-23T19:30:08.774Z,10.70
2023-11-23T19:32:36.083Z,10.70
2023-11-23T19:35:03.116Z,10.70
2023-11-23T19:37:30.342Z,11.00
2023-11-23T19:39:59.281Z,10.70
2023-11-23T19:42:27.314Z,10.70
2023-11-23T19:44:54.845Z,10.70
2023-11-23T19:47:22.698Z,10.80
2023-11-23T19:54:54.882Z,10.60
2023-11-23T19:57:26.471Z,10.60
2023-11-23T20:59:30.387Z,9.20
2023-11-23T21:19:38.457Z,9.40
2023-11-23T21:22:05.455Z,9.20
